createdAt,value
2023-02-11T00:01:50.089Z,54.96
2023-02-11T00:04:17.119Z,54.12
2023-02-11T00:06:43.897Z,54.12
2023-02-11T00:09:11.452Z,54.23
2023-02-11T00:11:38.187Z,54.41
2023-02-11T00:14:08.292Z,54.16
2023-02-11T00:16:35.113Z,54.92
2023-02-11T00:19:03.326Z,55.49
2023-02-11T00:21:30.130Z,54.95
2023-02-11T00:23:59.953Z,53.67
2023-02-11T00:26:35.092Z,54.74
2023-02-11T00:29:02.494Z,55.00
2023-02-11T00:31:31.490Z,54.55
2023-02-11T00:33:58.215Z,54.97
2023-02-11T00:36:27.632Z,55.37
2023-02-11T00:38:56.595Z,55.14
2023-02-11T00:41:23.833Z,54.76
2023-02-11T00:43:51.245Z,55.34
2023-02-11T00:46:19.053Z,56.12
2023-02-11T00:48:45.924Z,54.21
2023-02-11T00:51:12.700Z,54.74
2023-02-11T00:53:39.467Z,54.39
2023-02-11T00:56:08.004Z,54.77
2023-02-11T00:58:34.979Z,55.51
2023-02-11T01:01:01.675Z,55.08
2023-02-11T01:03:28.384Z,55.32
2023-02-11T01:05:55.548Z,55.27
2023-02-11T01:08:22.421Z,56.01
2023-02-11T01:11:04.391Z,55.05
2023-02-11T01:13:35.004Z,55.54
2023-02-11T01:16:01.704Z,55.92
2023-02-11T01:18:28.574Z,55.45
2023-02-11T01:20:55.273Z,56.55
2023-02-11T01:23:23.578Z,55.56
2023-02-11T01:25:51.346Z,56.11
2023-02-11T01:28:20.033Z,56.15
2023-02-11T01:30:47.173Z,55.50
2023-02-11T01:33:14.144Z,55.45
2023-02-11T01:35:44.445Z,54.90
2023-02-11T01:38:23.897Z,55.94
2023-02-11T01:40:55.650Z,56.40
2023-02-11T01:43:24.732Z,55.53
2023-02-11T01:45:59.396Z,56.18
2023-02-11T01:48:36.674Z,55.58
2023-02-11T01:51:09.287Z,55.79
2023-02-11T01:53:57.084Z,56.31
2023-02-11T01:56:45.560Z,55.66
2023-02-11T01:59:17.330Z,55.60
2023-02-11T02:01:50.548Z,56.25
2023-02-11T02:04:19.188Z,55.59
2023-02-11T02:07:24.372Z,56.04
2023-02-11T02:10:00.395Z,56.41
2023-02-11T02:12:27.144Z,55.22
2023-02-11T02:15:17.610Z,55.48
2023-02-11T02:18:01.004Z,56.23
2023-02-11T02:20:45.806Z,55.62
2023-02-11T02:23:18.430Z,56.37
2023-02-11T02:26:00.206Z,55.24
2023-02-11T02:29:18.003Z,56.20
2023-02-11T02:32:10.353Z,55.96
2023-02-11T02:34:53.175Z,56.73
2023-02-11T02:37:37.893Z,57.47
2023-02-11T02:40:12.782Z,55.77
2023-02-11T02:42:41.180Z,56.48
2023-02-11T02:45:10.514Z,56.23
2023-02-11T02:47:37.317Z,57.21
2023-02-11T02:50:06.141Z,56.76
2023-02-11T02:53:06.514Z,56.25
2023-02-11T02:55:38.869Z,57.55
2023-02-11T02:58:20.402Z,55.47
2023-02-11T03:00:47.079Z,55.62
2023-02-11T03:03:40.968Z,56.21
2023-02-11T03:06:29.863Z,56.92
2023-02-11T03:09:39.296Z,55.82
2023-02-11T03:12:07.020Z,56.69
2023-02-11T03:14:35.797Z,56.09
2023-02-11T03:17:05.626Z,56.64
2023-02-11T03:19:37.742Z,57.18
2023-02-11T03:22:09.727Z,56.32
2023-02-11T03:24:39.618Z,56.46
2023-02-11T03:27:25.945Z,57.48
2023-02-11T03:30:01.317Z,56.75
2023-02-11T03:32:35.705Z,57.01
2023-02-11T03:35:21.482Z,57.13
2023-02-11T03:37:57.073Z,56.57
2023-02-11T03:40:25.992Z,57.30
2023-02-11T03:43:03.214Z,56.25
2023-02-11T03:45:30.743Z,56.40
2023-02-11T03:48:08.914Z,55.76
2023-02-11T03:50:37.331Z,56.85
2023-02-11T03:53:05.356Z,57.12
2023-02-11T03:55:36.917Z,57.63
2023-02-11T03:58:03.959Z,57.71
2023-02-11T04:00:36.692Z,58.13
2023-02-11T04:03:04.502Z,58.09
2023-02-11T04:05:31.567Z,57.32
2023-02-11T04:07:58.306Z,57.50
2023-02-11T04:10:25.656Z,57.61
2023-02-11T04:12:52.405Z,57.98
2023-02-11T04:15:19.151Z,57.50
2023-02-11T04:17:45.818Z,58.09
2023-02-11T04:20:13.021Z,57.56
2023-02-11T04:22:40.275Z,57.18
2023-02-11T04:25:07.924Z,57.07
2023-02-11T04:27:34.575Z,57.16
2023-02-11T04:30:01.200Z,56.87
2023-02-11T04:32:28.076Z,58.14
2023-02-11T04:34:55.359Z,56.37
2023-02-11T04:37:22.102Z,56.79
2023-02-11T04:39:48.729Z,57.05
2023-02-11T04:42:15.614Z,57.87
2023-02-11T04:44:42.230Z,57.05
2023-02-11T04:47:08.946Z,57.21
2023-02-11T04:49:35.690Z,57.23
2023-02-11T04:52:02.310Z,56.82
2023-02-11T04:54:28.923Z,58.22
2023-02-11T04:56:55.524Z,57.84
2023-02-11T04:59:22.174Z,56.56
2023-02-11T05:01:49.893Z,56.79
2023-02-11T05:04:16.874Z,58.20
2023-02-11T05:06:43.608Z,57.08
2023-02-11T05:09:14.435Z,57.22
2023-02-11T05:11:41.121Z,56.66
2023-02-11T05:14:07.869Z,56.79
2023-02-11T05:16:34.925Z,58.70
2023-02-11T05:19:01.552Z,58.47
2023-02-11T05:21:28.274Z,56.84
2023-02-11T05:23:54.847Z,56.96
2023-02-11T05:26:21.536Z,57.13
2023-02-11T05:28:48.223Z,57.76
2023-02-11T05:31:15.206Z,57.29
2023-02-11T05:33:42.076Z,58.06
2023-02-11T05:36:11.729Z,57.05
2023-02-11T05:38:38.972Z,57.29
2023-02-11T05:41:06.527Z,57.68
2023-02-11T05:43:35.361Z,57.88
2023-02-11T05:46:03.797Z,57.23
2023-02-11T05:48:31.042Z,58.47
2023-02-11T05:50:57.883Z,58.40
2023-02-11T05:53:24.556Z,57.57
2023-02-11T05:55:51.653Z,59.18
2023-02-11T05:58:18.475Z,59.52
2023-02-11T06:00:45.164Z,58.74
2023-02-11T06:03:11.794Z,59.22
2023-02-11T06:05:38.664Z,59.10
2023-02-11T06:08:05.526Z,59.42
2023-02-11T06:10:32.179Z,58.79
2023-02-11T06:12:58.801Z,58.63
2023-02-11T06:15:25.524Z,58.99
2023-02-11T06:17:52.364Z,58.63
2023-02-11T06:20:19.655Z,58.61
2023-02-11T06:22:46.919Z,57.56
2023-02-11T06:25:14.144Z,58.88
2023-02-11T06:27:41.199Z,58.15
2023-02-11T06:30:08.619Z,58.49
2023-02-11T06:32:43.935Z,59.66
2023-02-11T06:35:12.559Z,59.39
2023-02-11T06:37:40.970Z,59.10
2023-02-11T06:40:08.180Z,59.16
2023-02-11T06:42:36.262Z,57.97
2023-02-11T06:45:06.063Z,58.82
2023-02-11T06:47:32.994Z,58.85
2023-02-11T06:49:59.762Z,59.11
2023-02-11T06:52:26.431Z,59.50
2023-02-11T06:54:53.008Z,59.00
2023-02-11T06:57:19.817Z,59.16
2023-02-11T06:59:46.370Z,57.67
2023-02-11T07:02:13.029Z,58.35
2023-02-11T07:04:39.732Z,58.29
2023-02-11T07:07:06.557Z,58.97
2023-02-11T07:09:33.143Z,58.59
2023-02-11T07:11:59.772Z,58.74
2023-02-11T07:14:26.347Z,59.21
2023-02-11T07:16:53.116Z,59.81
2023-02-11T07:19:20.051Z,59.22
2023-02-11T07:21:46.756Z,59.14
2023-02-11T07:24:13.333Z,59.37
2023-02-11T07:26:40.320Z,59.47
2023-02-11T07:29:07.111Z,60.05
2023-02-11T07:31:33.971Z,59.09
2023-02-11T07:34:01.931Z,59.45
2023-02-11T07:36:30.107Z,59.35
2023-02-11T07:38:56.684Z,58.57
2023-02-11T07:41:24.854Z,60.34
2023-02-11T07:43:51.804Z,58.82
2023-02-11T07:46:25.858Z,59.22
2023-02-11T07:48:53.195Z,60.63
2023-02-11T07:51:22.999Z,60.98
2023-02-11T07:53:50.020Z,61.05
2023-02-11T07:56:18.135Z,62.10
2023-02-11T07:58:45.550Z,61.84
2023-02-11T08:01:16.630Z,61.94
2023-02-11T08:03:43.843Z,62.34
2023-02-11T08:06:14.167Z,62.35
2023-02-11T08:08:41.881Z,61.40
2023-02-11T08:11:09.938Z,60.86
2023-02-11T08:13:37.320Z,61.98
2023-02-11T08:16:04.872Z,60.88
2023-02-11T08:18:32.496Z,61.07
2023-02-11T08:21:17.910Z,60.83
2023-02-11T08:23:45.488Z,60.71
2023-02-11T08:26:20.158Z,59.51
2023-02-11T08:28:48.119Z,59.33
2023-02-11T08:31:18.085Z,58.94
2023-02-11T08:33:45.287Z,60.26
2023-02-11T08:36:23.962Z,59.51
2023-02-11T08:38:51.085Z,59.47
2023-02-11T08:41:18.239Z,58.14
2023-02-11T08:43:46.149Z,59.10
2023-02-11T08:46:16.260Z,58.30
2023-02-11T08:48:43.737Z,59.05
2023-02-11T08:51:15.589Z,59.64
2023-02-11T08:53:42.674Z,59.27
2023-02-11T08:56:13.347Z,59.79
2023-02-11T08:58:40.823Z,59.15
2023-02-11T09:01:29.112Z,58.50
2023-02-11T09:03:57.132Z,57.51
2023-02-11T09:06:25.721Z,55.53
2023-02-11T09:08:54.802Z,55.26
2023-02-11T09:11:34.394Z,55.60
2023-02-11T09:14:02.183Z,54.58
2023-02-11T09:16:36.091Z,55.51
2023-02-11T09:19:04.755Z,55.92
2023-02-11T09:21:31.892Z,56.89
2023-02-11T09:23:58.602Z,57.26
2023-02-11T09:26:28.381Z,57.02
2023-02-11T09:28:55.549Z,56.12
2023-02-11T09:31:24.998Z,57.11
2023-02-11T09:33:56.326Z,56.93
2023-02-11T09:36:25.694Z,56.00
2023-02-11T09:38:53.349Z,55.04
2023-02-11T09:41:54.814Z,55.04
2023-02-11T09:44:24.080Z,54.27
2023-02-11T09:47:00.669Z,55.56
2023-02-11T09:49:47.192Z,55.17
2023-02-11T09:52:33.331Z,54.89
2023-02-11T09:55:11.203Z,55.29
2023-02-11T09:57:37.969Z,54.60
2023-02-11T10:00:32.266Z,53.97
2023-02-11T10:03:08.363Z,52.97
2023-02-11T10:05:56.419Z,50.83
2023-02-11T10:08:44.181Z,50.27
2023-02-11T10:11:46.074Z,50.14
2023-02-11T10:14:16.507Z,48.01
2023-02-11T10:16:45.805Z,47.52
2023-02-11T10:19:21.185Z,46.87
2023-02-11T10:22:04.907Z,46.56
2023-02-11T10:24:32.421Z,47.33
2023-02-11T10:26:59.341Z,46.77
2023-02-11T10:29:43.571Z,47.07
2023-02-11T10:32:46.594Z,46.68
2023-02-11T10:35:21.168Z,49.59
2023-02-11T10:37:48.759Z,49.37
2023-02-11T10:40:25.057Z,49.75
2023-02-11T10:42:55.873Z,49.85
2023-02-11T10:45:32.488Z,48.85
2023-02-11T10:48:01.171Z,49.65
2023-02-11T10:50:33.472Z,50.22
2023-02-11T10:53:15.437Z,50.58
2023-02-11T10:55:54.139Z,51.32
2023-02-11T10:58:30.679Z,49.11
2023-02-11T11:00:59.822Z,49.57
2023-02-11T11:03:31.384Z,48.94
2023-02-11T11:06:01.024Z,45.42
2023-02-11T11:08:47.872Z,45.09
2023-02-11T11:11:22.434Z,45.95
2023-02-11T11:13:58.208Z,48.81
2023-02-11T11:16:30.522Z,48.24
2023-02-11T11:19:09.176Z,46.11
2023-02-11T11:21:54.944Z,46.61
2023-02-11T11:24:44.349Z,46.77
2023-02-11T11:27:19.655Z,46.20
2023-02-11T11:29:50.191Z,46.95
2023-02-11T11:32:21.888Z,45.26
2023-02-11T11:34:51.490Z,42.60
2023-02-11T11:37:32.502Z,43.57
2023-02-11T11:40:29.595Z,45.63
2023-02-11T11:43:12.964Z,44.33
2023-02-11T11:45:40.482Z,44.56
2023-02-11T11:48:18.536Z,43.96
2023-02-11T11:50:52.218Z,42.44
2023-02-11T11:53:37.366Z,41.40
2023-02-11T11:56:07.333Z,40.84
2023-02-11T11:58:34.411Z,39.00
2023-02-11T12:01:09.804Z,38.68
2023-02-11T12:03:36.407Z,39.62
2023-02-11T12:06:15.240Z,41.06
2023-02-11T12:08:59.006Z,40.65
2023-02-11T12:11:34.776Z,39.61
2023-02-11T12:14:23.264Z,40.18
2023-02-11T12:16:55.770Z,41.90
2023-02-11T12:19:40.312Z,41.72
2023-02-11T12:22:26.631Z,39.74
2023-02-11T12:25:21.124Z,40.82
2023-02-11T12:28:01.963Z,41.32
2023-02-11T12:30:40.178Z,41.73
2023-02-11T12:33:12.506Z,41.70
2023-02-11T12:35:59.719Z,39.70
2023-02-11T12:38:37.539Z,39.03
2023-02-11T12:41:10.382Z,37.88
2023-02-11T12:43:40.117Z,37.94
2023-02-11T12:46:32.941Z,37.23
2023-02-11T12:49:21.435Z,37.00
2023-02-11T12:52:09.262Z,38.35
2023-02-11T12:54:44.653Z,37.64
2023-02-11T12:57:19.758Z,37.67
2023-02-11T13:00:05.083Z,38.63
2023-02-11T13:02:51.324Z,38.98
2023-02-11T13:05:33.768Z,39.41
2023-02-11T13:08:09.109Z,39.71
2023-02-11T13:10:41.549Z,38.20
2023-02-11T13:13:26.827Z,39.04
2023-02-11T13:16:12.481Z,37.78
2023-02-11T13:19:07.808Z,37.80
2023-02-11T13:21:51.365Z,37.65
2023-02-11T13:24:37.190Z,37.30
2023-02-11T13:27:18.673Z,36.59
2023-02-11T13:30:29.053Z,36.70
2023-02-11T13:33:03.254Z,37.50
2023-02-11T13:35:37.764Z,35.09
2023-02-11T13:38:16.432Z,34.50
2023-02-11T13:40:43.931Z,34.65
2023-02-11T13:43:24.573Z,35.00
2023-02-11T13:45:57.942Z,35.22
2023-02-11T13:48:37.243Z,35.04
2023-02-11T13:51:07.590Z,34.95
2023-02-11T13:53:50.689Z,36.59
2023-02-11T13:56:30.296Z,36.58
2023-02-11T13:59:01.855Z,36.14
2023-02-11T14:02:07.295Z,35.64
2023-02-11T14:04:53.234Z,35.51
2023-02-11T14:07:52.771Z,34.50
2023-02-11T14:10:41.143Z,33.77
2023-02-11T14:13:27.468Z,33.82
2023-02-11T14:16:36.852Z,33.29
2023-02-11T14:19:06.228Z,35.30
2023-02-11T14:21:42.297Z,34.34
2023-02-11T14:24:12.927Z,34.38
2023-02-11T14:26:59.210Z,34.05
2023-02-11T14:29:34.647Z,32.66
2023-02-11T14:32:05.818Z,33.30
2023-02-11T14:34:41.863Z,32.54
2023-02-11T14:37:30.494Z,32.95
2023-02-11T14:40:03.078Z,31.65
2023-02-11T14:42:31.200Z,31.75
2023-02-11T14:45:05.335Z,32.89
2023-02-11T14:47:42.894Z,32.51
2023-02-11T14:50:19.315Z,32.72
2023-02-11T14:52:46.390Z,32.73
2023-02-11T14:55:23.773Z,32.77
2023-02-11T14:58:06.265Z,32.41
2023-02-11T15:00:32.954Z,32.17
2023-02-11T15:02:59.609Z,32.08
2023-02-11T15:05:29.321Z,31.74
2023-02-11T15:07:59.120Z,32.19
2023-02-11T15:10:32.915Z,32.36
2023-02-11T15:13:02.173Z,31.55
2023-02-11T15:15:31.392Z,32.45
2023-02-11T15:18:01.600Z,33.44
2023-02-11T15:20:31.822Z,34.05
2023-02-11T15:23:05.555Z,34.44
2023-02-11T15:25:34.139Z,34.54
2023-02-11T15:28:01.112Z,33.85
2023-02-11T15:30:34.184Z,35.56
2023-02-11T15:33:05.845Z,35.43
2023-02-11T15:35:40.968Z,35.15
2023-02-11T15:38:11.045Z,35.70
2023-02-11T15:40:37.951Z,36.09
2023-02-11T15:43:10.633Z,36.65
2023-02-11T15:45:44.598Z,36.23
2023-02-11T15:48:21.640Z,35.99
2023-02-11T15:51:01.549Z,36.57
2023-02-11T15:53:36.316Z,37.11
2023-02-11T15:56:11.763Z,37.64
2023-02-11T15:58:40.854Z,37.99
2023-02-11T16:01:08.804Z,38.83
2023-02-11T16:03:36.301Z,39.20
2023-02-11T16:06:35.474Z,38.51
2023-02-11T16:09:23.624Z,38.33
2023-02-11T16:11:50.260Z,39.05
2023-02-11T16:14:27.169Z,39.72
2023-02-11T16:16:58.836Z,40.51
2023-02-11T16:19:27.192Z,40.00
2023-02-11T16:21:56.613Z,39.30
2023-02-11T16:24:34.211Z,38.70
2023-02-11T16:27:03.119Z,38.96
2023-02-11T16:29:32.600Z,39.82
2023-02-11T16:32:28.934Z,40.98
2023-02-11T16:34:58.094Z,41.38
2023-02-11T16:37:25.606Z,41.86
2023-02-11T16:39:56.869Z,42.73
2023-02-11T16:42:23.712Z,43.20
2023-02-11T16:44:50.331Z,43.26
2023-02-11T16:47:24.338Z,43.78
2023-02-11T16:49:51.222Z,44.23
2023-02-11T16:52:19.814Z,45.01
2023-02-11T16:54:46.739Z,45.26
2023-02-11T16:57:24.600Z,45.27
2023-02-11T16:59:52.269Z,45.50
2023-02-11T17:02:24.119Z,46.22
2023-02-11T17:04:53.500Z,46.79
2023-02-11T17:07:20.185Z,46.84
2023-02-11T17:09:46.819Z,46.57
2023-02-11T17:12:13.602Z,45.95
2023-02-11T17:14:40.698Z,46.57
2023-02-11T17:17:08.042Z,46.27
2023-02-11T17:19:34.824Z,47.53
2023-02-11T17:22:01.601Z,47.41
2023-02-11T17:24:28.320Z,47.87
2023-02-11T17:26:55.133Z,47.53
2023-02-11T17:29:24.230Z,47.32
2023-02-11T17:31:52.204Z,48.54
2023-02-11T17:34:20.842Z,48.86
2023-02-11T17:36:47.743Z,48.39
2023-02-11T17:39:14.494Z,48.92
2023-02-11T17:41:41.467Z,49.92
2023-02-11T17:44:10.458Z,48.97
2023-02-11T17:46:37.086Z,48.71
2023-02-11T17:49:04.655Z,48.91
2023-02-11T17:51:34.694Z,48.79
2023-02-11T17:54:04.499Z,49.71
2023-02-11T17:56:36.197Z,49.20
2023-02-11T17:59:04.161Z,49.39
2023-02-11T18:01:33.034Z,49.95
2023-02-11T18:03:59.916Z,50.29
2023-02-11T18:06:27.074Z,50.07
2023-02-11T18:08:56.884Z,49.24
2023-02-11T18:11:25.264Z,50.01
2023-02-11T18:13:54.607Z,50.13
2023-02-11T18:16:23.742Z,50.36
2023-02-11T18:18:50.696Z,51.17
2023-02-11T18:21:20.359Z,50.85
2023-02-11T18:23:48.303Z,50.33
2023-02-11T18:26:17.981Z,50.74
2023-02-11T18:28:46.062Z,50.45
2023-02-11T18:31:13.851Z,50.11
2023-02-11T18:33:41.661Z,50.62
2023-02-11T18:36:11.154Z,50.33
2023-02-11T18:38:38.450Z,49.68
2023-02-11T18:41:05.368Z,50.10
2023-02-11T18:43:33.739Z,50.12
2023-02-11T18:46:02.197Z,50.42
2023-02-11T18:48:29.257Z,50.34
2023-02-11T18:50:56.460Z,51.19
2023-02-11T18:53:24.592Z,51.03
2023-02-11T18:55:52.080Z,50.71
2023-02-11T18:58:21.179Z,51.42
2023-02-11T19:00:49.111Z,50.70
2023-02-11T19:03:16.654Z,50.37
2023-02-11T19:05:48.315Z,51.75
2023-02-11T19:08:16.912Z,51.68
2023-02-11T19:10:47.924Z,51.16
2023-02-11T19:13:15.039Z,51.53
2023-02-11T19:15:43.477Z,51.22
2023-02-11T19:18:11.105Z,51.50
2023-02-11T19:20:43.457Z,52.12
2023-02-11T19:23:10.852Z,52.57
2023-02-11T19:25:37.766Z,52.18
2023-02-11T19:28:04.442Z,51.36
2023-02-11T19:30:31.089Z,51.72
2023-02-11T19:32:57.924Z,52.53
2023-02-11T19:35:25.297Z,52.10
2023-02-11T19:37:52.066Z,52.07
2023-02-11T19:40:21.113Z,52.39
2023-02-11T19:42:47.911Z,53.04
2023-02-11T19:45:14.595Z,53.18
2023-02-11T19:47:41.392Z,52.76
2023-02-11T19:50:08.649Z,52.77
2023-02-11T19:52:38.317Z,52.92
2023-02-11T19:55:05.468Z,52.49
2023-02-11T19:57:32.126Z,53.12
2023-02-11T19:59:58.967Z,52.51
2023-02-11T20:02:25.651Z,52.56
2023-02-11T20:04:52.474Z,52.68
2023-02-11T20:07:19.010Z,52.48
2023-02-11T20:09:45.682Z,51.94
2023-02-11T20:12:12.436Z,52.34
2023-02-11T20:14:39.087Z,52.53
2023-02-11T20:17:05.663Z,52.79
2023-02-11T20:19:32.450Z,52.81
2023-02-11T20:21:59.146Z,53.05
2023-02-11T20:24:26.265Z,53.39
2023-02-11T20:26:56.060Z,53.41
2023-02-11T20:29:23.745Z,53.33
2023-02-11T20:31:50.808Z,53.42
2023-02-11T20:34:17.896Z,52.74
2023-02-11T20:36:51.482Z,53.18
2023-02-11T20:39:18.982Z,53.55
2023-02-11T20:41:46.210Z,53.50
2023-02-11T20:44:13.808Z,54.09
2023-02-11T20:46:43.599Z,54.00
2023-02-11T20:49:12.582Z,54.30
2023-02-11T20:51:39.555Z,53.18
2023-02-11T20:54:06.936Z,53.27
2023-02-11T20:56:38.231Z,53.92
2023-02-11T20:59:05.839Z,54.13
2023-02-11T21:01:40.282Z,54.56
2023-02-11T21:04:12.803Z,54.50
2023-02-11T21:06:42.964Z,54.92
2023-02-11T21:09:13.995Z,54.87
2023-02-11T21:11:41.549Z,54.99
2023-02-11T21:14:10.041Z,54.76
2023-02-11T21:16:36.951Z,55.55
2023-02-11T21:19:04.325Z,55.59
2023-02-11T21:21:31.915Z,56.13
2023-02-11T21:23:58.696Z,55.99
2023-02-11T21:26:25.945Z,55.97
2023-02-11T21:28:52.946Z,55.58
2023-02-11T21:31:22.928Z,55.38
2023-02-11T21:33:50.946Z,55.56
2023-02-11T21:36:17.916Z,55.64
2023-02-11T21:38:44.910Z,56.43
2023-02-11T21:41:12.002Z,56.42
2023-02-11T21:43:38.974Z,55.99
2023-02-11T21:46:10.550Z,55.43
2023-02-11T21:48:37.700Z,56.13
2023-02-11T21:51:12.833Z,56.07
2023-02-11T21:53:39.635Z,56.14
2023-02-11T21:56:08.810Z,55.91
2023-02-11T21:58:36.061Z,56.55
2023-02-11T22:01:19.899Z,56.04
2023-02-11T22:03:47.305Z,55.87
2023-02-11T22:06:17.166Z,56.65
2023-02-11T22:08:43.983Z,56.15
2023-02-11T22:11:12.613Z,56.00
2023-02-11T22:13:40.045Z,55.82
2023-02-11T22:16:09.825Z,55.62
2023-02-11T22:18:36.797Z,56.64
2023-02-11T22:21:06.564Z,56.42
2023-02-11T22:23:33.899Z,56.44
2023-02-11T22:26:14.089Z,56.24
2023-02-11T22:28:40.966Z,56.42
2023-02-11T22:31:13.491Z,55.94
2023-02-11T22:33:40.782Z,56.53
2023-02-11T22:36:12.132Z,56.57
2023-02-11T22:38:38.979Z,56.37
2023-02-11T22:41:08.070Z,56.28
2023-02-11T22:43:35.178Z,56.59
2023-02-11T22:46:07.272Z,56.38
2023-02-11T22:48:35.284Z,55.88
2023-02-11T22:51:06.685Z,56.54
2023-02-11T22:53:33.847Z,56.62
2023-02-11T22:56:05.527Z,57.04
2023-02-11T22:58:32.216Z,56.73
2023-02-11T23:00:58.895Z,57.10
2023-02-11T23:03:26.280Z,56.40
2023-02-11T23:05:53.109Z,56.56
2023-02-11T23:08:20.690Z,56.63
2023-02-11T23:10:47.409Z,56.33
2023-02-11T23:13:14.942Z,56.68
2023-02-11T23:15:43.133Z,56.78
2023-02-11T23:18:11.318Z,56.94
2023-02-11T23:20:39.850Z,57.21
2023-02-11T23:23:09.384Z,57.33
2023-02-11T23:25:42.643Z,57.06
2023-02-11T23:28:10.046Z,56.87
2023-02-11T23:30:36.888Z,56.50
2023-02-11T23:33:03.587Z,56.98
2023-02-11T23:35:30.495Z,56.60
2023-02-11T23:37:57.171Z,57.39
2023-02-11T23:40:23.953Z,57.65
2023-02-11T23:42:50.634Z,57.29
2023-02-11T23:45:17.349Z,57.37
2023-02-11T23:47:45.116Z,57.80
2023-02-11T23:50:11.997Z,57.99
2023-02-11T23:52:38.703Z,58.36
2023-02-11T23:55:05.863Z,58.27
2023-02-11T23:57:33.204Z,57.74
